Burgos, España

1:16 AM CET en Enero 26, 2015 (GMT +0100)
Foronda | Change Station
CLOSE
Current Station
Aeropuerto
Location: Vitoria,
Altura: 1673 ft
Estaciones meteorológicas cercanas
Aviso en curso: Extreme low temperature

Alt 1673 ft 42.88 °N, 2.72 °W | Updated 16 minutes ago

Mostly Cloudy
Muy nublado
36 ° F
Sensación térmica 36 ° F
N
0
Viento Variable Viento desde Norte

Hoy
Alta -- | Baja -- ° F
--% Posibilidad de precipitaciones
Ayer
Alta -- | Baja -- ° F
Precip. -- pul
8:34 AM 6:20 PM
Creciente, 37% visible
Presión 30.48 pul
Visibilidad 6.2 Millas
Nubes Baja 2200 ft
Muy nublado 3200 ft
Punto de rocío 34 ° F
Humedad 93%
Precipitaciones 0.00 pul
Espesor de la nieve No disponible.
UV 0 de una escala de 12
Polen No disponible.
Calidad del aire No disponible.
Flu Activity No disponible.
METAR LEVT 260000Z 00000KT 9999 FEW022 BKN032 02/01 Q1032

More Conditions Fewer Conditions

Presión 30.48 pul
Visibilidad 6.2 Millas
Nubes Baja 2200 ft
Muy nublado 3200 ft
Punto de rocío 34 ° F
Humedad 93%
Precipitaciones 0.00 pul
Espesor de la nieve No disponible.
UV 0 de una escala de 12
Polen No disponible.
Calidad del aire No disponible.
Flu Activity No disponible.
METAR LEVT 260000Z 00000KT 9999 FEW022 BKN032 02/01 Q1032

More Conditions Fewer Conditions

10-Day Weather Forecast

Almanac

Astronomía

Jan. 26, 2015 Salida Puesta
Hora real
Crepúsculo civil
Crepúsculo náutico
Crepúsculo astronómico
Luna
Horas de luz
Horas de luz
Tomorrow will be .
, % of the Moon is Illuminated

Extremos de hoy

Máximos del país Bajas del país

Community

WunderPhotos

Upload Photos

1,790,010 ¡fotos cargadas!

WunderBlogs® & News

Nearby

Calidad del aire

  Calidad del aire Índice AQ Contaminante
Not available.

Grosos de nieve

Estación Profundido Altura

Actividad de terremotos

Ciudad Distance Mag. Tiempo y dato
Magnitud mínima muestra es 2,5.

Temperaturas de aguas costeras

Lugar Temperatura

Estaciones meteorológicas cercanas